sensor_id;sensor_type;location;lat;lon;timestamp;temperature;humidity
13600;DHT22;6871;51.34740610;4.31323160;2023-04-03T11:27:25;14.50;78.00
13600;DHT22;6871;51.34740610;4.31323160;2023-04-03T11:29:58;14.50;79.20
13600;DHT22;6871;51.34740610;4.31323160;2023-04-03T11:56:57;14.60;79.50
13600;DHT22;6871;51.34740610;4.31323160;2023-04-03T11:59:26;16.00;75.70
13600;DHT22;6871;51.34740610;4.31323160;2023-04-03T12:01:57;15.80;76.30
13600;DHT22;6871;51.34740610;4.31323160;2023-04-03T12:04:27;15.70;77.10
13600;DHT22;6871;51.34740610;4.31323160;2023-04-03T12:07:18;15.50;77.90
13600;DHT22;6871;51.34740610;4.31323160;2023-04-03T12:10:15;15.40;78.60
13600;DHT22;6871;51.34740610;4.31323160;2023-04-03T12:12:57;15.30;78.70
13600;DHT22;6871;51.34740610;4.31323160;2023-04-03T12:18:57;15.10;79.60
13600;DHT22;6871;51.34740610;4.31323160;2023-04-03T12:24:40;15.00;80.50
13600;DHT22;6871;51.34740610;4.31323160;2023-04-03T12:27:22;15.00;80.70
13600;DHT22;6871;51.34740610;4.31323160;2023-04-03T12:29:56;14.90;81.00
13600;DHT22;6871;51.34740610;4.31323160;2023-04-03T12:35:35;15.00;81.30
13600;DHT22;6871;51.34740610;4.31323160;2023-04-03T12:38:35;15.00;81.40
13600;DHT22;6871;51.34740610;4.31323160;2023-04-03T12:41:14;14.90;80.70
13600;DHT22;6871;51.34740610;4.31323160;2023-04-03T12:43:49;14.90;81.70
13600;DHT22;6871;51.34740610;4.31323160;2023-04-03T12:49:00;14.80;81.40
13600;DHT22;6871;51.34740610;4.31323160;2023-04-03T12:51:33;14.80;81.50
13600;DHT22;6871;51.34740610;4.31323160;2023-04-03T12:54:12;14.80;81.90
13600;DHT22;6871;51.34740610;4.31323160;2023-04-03T12:56:35;14.80;82.30
13600;DHT22;6871;51.34740610;4.31323160;2023-04-03T13:12:25;14.90;81.90
13600;DHT22;6871;51.34740610;4.31323160;2023-04-03T13:14:56;14.70;82.30
13600;DHT22;6871;51.34740610;4.31323160;2023-04-03T13:17:26;14.70;82.10
13600;DHT22;6871;51.34740610;4.31323160;2023-04-03T13:19:56;14.70;82.00
13600;DHT22;6871;51.34740610;4.31323160;2023-04-03T13:22:32;14.70;81.90
13600;DHT22;6871;51.34740610;4.31323160;2023-04-03T13:25:07;14.70;81.90
13600;DHT22;6871;51.34740610;4.31323160;2023-04-03T13:27:39;14.80;82.20
13600;DHT22;6871;51.34740610;4.31323160;2023-04-03T13:30:23;14.70;82.10
13600;DHT22;6871;51.34740610;4.31323160;2023-04-03T13:32:52;14.70;81.80
13600;DHT22;6871;51.34740610;4.31323160;2023-04-03T13:35:33;14.80;82.20
13600;DHT22;6871;51.34740610;4.31323160;2023-04-03T13:38:07;14.70;82.30
13600;DHT22;6871;51.34740610;4.31323160;2023-04-03T13:40:50;14.80;82.20
13600;DHT22;6871;51.34740610;4.31323160;2023-04-03T13:43:21;14.80;82.10
13600;DHT22;6871;51.34740610;4.31323160;2023-04-03T13:46:03;14.80;82.00
13600;DHT22;6871;51.34740610;4.31323160;2023-04-03T13:48:45;14.80;81.90
13600;DHT22;6871;51.34740610;4.31323160;2023-04-03T13:51:21;14.80;81.90
13600;DHT22;6871;51.34740610;4.31323160;2023-04-03T13:53:54;14.80;82.00
13600;DHT22;6871;51.34740610;4.31323160;2023-04-03T13:56:29;14.80;81.90
13600;DHT22;6871;51.34740610;4.31323160;2023-04-03T14:12:37;14.70;82.20
13600;DHT22;6871;51.34740610;4.31323160;2023-04-03T14:15:16;14.50;81.90
13600;DHT22;6871;51.34740610;4.31323160;2023-04-03T14:17:46;14.60;82.20
13600;DHT22;6871;51.34740610;4.31323160;2023-04-03T14:20:17;14.60;82.00
13600;DHT22;6871;51.34740610;4.31323160;2023-04-03T14:22:46;14.60;82.00
13600;DHT22;6871;51.34740610;4.31323160;2023-04-03T14:25:16;14.60;82.00
13600;DHT22;6871;51.34740610;4.31323160;2023-04-03T14:27:47;14.70;82.10
13600;DHT22;6871;51.34740610;4.31323160;2023-04-03T14:30:19;14.70;82.00
13600;DHT22;6871;51.34740610;4.31323160;2023-04-03T14:32:50;14.70;82.00
13600;DHT22;6871;51.34740610;4.31323160;2023-04-03T14:35:20;14.70;82.10
13600;DHT22;6871;51.34740610;4.31323160;2023-04-03T14:37:50;14.70;82.10
13600;DHT22;6871;51.34740610;4.31323160;2023-04-03T14:40:23;14.70;82.20
13600;DHT22;6871;51.34740610;4.31323160;2023-04-03T14:42:53;14.70;82.20
13600;DHT22;6871;51.34740610;4.31323160;2023-04-03T14:45:25;14.70;82.20
13600;DHT22;6871;51.34740610;4.31323160;2023-04-03T14:47:55;14.70;82.20
13600;DHT22;6871;51.34740610;4.31323160;2023-04-03T14:50:26;14.70;82.10
13600;DHT22;6871;51.34740610;4.31323160;2023-04-03T14:52:57;14.70;82.30
13600;DHT22;6871;51.34740610;4.31323160;2023-04-03T14:55:27;14.70;82.40
13600;DHT22;6871;51.34740610;4.31323160;2023-04-03T14:57:57;14.70;82.60
13600;DHT22;6871;51.34740610;4.31323160;2023-04-03T15:00:26;14.70;82.60
13600;DHT22;6871;51.34740610;4.31323160;2023-04-03T15:02:56;14.70;82.60
13600;DHT22;6871;51.34740610;4.31323160;2023-04-03T15:05:25;14.70;82.00
13600;DHT22;6871;51.34740610;4.31323160;2023-04-03T15:07:57;14.70;81.70
13600;DHT22;6871;51.34740610;4.31323160;2023-04-03T15:10:27;14.70;81.60
13600;DHT22;6871;51.34740610;4.31323160;2023-04-03T15:12:58;14.70;81.40
13600;DHT22;6871;51.34740610;4.31323160;2023-04-03T15:15:29;14.70;81.70
13600;DHT22;6871;51.34740610;4.31323160;2023-04-03T15:17:58;14.70;82.30
13600;DHT22;6871;51.34740610;4.31323160;2023-04-03T15:20:28;14.70;82.20
13600;DHT22;6871;51.34740610;4.31323160;2023-04-03T15:22:59;14.70;82.20
13600;DHT22;6871;51.34740610;4.31323160;2023-04-03T15:25:29;14.70;81.40
13600;DHT22;6871;51.34740610;4.31323160;2023-04-03T15:27:58;14.60;81.20
13600;DHT22;6871;51.34740610;4.31323160;2023-04-03T15:30:28;14.70;81.80
13600;DHT22;6871;51.34740610;4.31323160;2023-04-03T15:32:58;14.70;81.70
13600;DHT22;6871;51.34740610;4.31323160;2023-04-03T15:35:27;14.60;81.40
13600;DHT22;6871;51.34740610;4.31323160;2023-04-03T15:37:56;14.60;81.50
13600;DHT22;6871;51.34740610;4.31323160;2023-04-03T15:40:26;14.60;81.20
13600;DHT22;6871;51.34740610;4.31323160;2023-04-03T15:42:55;14.60;80.90
13600;DHT22;6871;51.34740610;4.31323160;2023-04-03T15:45:24;14.60;81.30
13600;DHT22;6871;51.34740610;4.31323160;2023-04-03T15:47:55;14.60;81.30
13600;DHT22;6871;51.34740610;4.31323160;2023-04-03T15:50:24;14.70;81.50
13600;DHT22;6871;51.34740610;4.31323160;2023-04-03T15:52:54;14.70;81.90
13600;DHT22;6871;51.34740610;4.31323160;2023-04-03T15:55:24;14.70;82.30
13600;DHT22;6871;51.34740610;4.31323160;2023-04-03T15:57:54;14.70;81.80
13600;DHT22;6871;51.34740610;4.31323160;2023-04-03T16:00:24;14.70;81.90
13600;DHT22;6871;51.34740610;4.31323160;2023-04-03T16:02:55;14.70;81.90
13600;DHT22;6871;51.34740610;4.31323160;2023-04-03T16:05:26;14.70;82.10
13600;DHT22;6871;51.34740610;4.31323160;2023-04-03T16:23:21;14.60;81.30
13600;DHT22;6871;51.34740610;4.31323160;2023-04-03T16:26:10;15.70;78.40
13600;DHT22;6871;51.34740610;4.31323160;2023-04-03T16:32:03;15.30;79.20
13600;DHT22;6871;51.34740610;4.31323160;2023-04-03T16:34:52;15.20;79.60
13600;DHT22;6871;51.34740610;4.31323160;2023-04-03T16:37:21;15.10;80.30
13600;DHT22;6871;51.34740610;4.31323160;2023-04-03T16:40:09;15.00;81.00
13600;DHT22;6871;51.34740610;4.31323160;2023-04-03T16:43:02;15.00;81.10
13600;DHT22;6871;51.34740610;4.31323160;2023-04-03T16:45:50;15.00;80.90
13600;DHT22;6871;51.34740610;4.31323160;2023-04-03T16:48:40;14.90;81.40
13600;DHT22;6871;51.34740610;4.31323160;2023-04-03T16:54:51;14.90;81.40
13600;DHT22;6871;51.34740610;4.31323160;2023-04-03T17:00:19;14.80;81.60
13600;DHT22;6871;51.34740610;4.31323160;2023-04-03T17:03:08;14.80;81.30
13600;DHT22;6871;51.34740610;4.31323160;2023-04-03T17:05:56;14.80;81.80
13600;DHT22;6871;51.34740610;4.31323160;2023-04-03T17:08:45;14.80;81.70
13600;DHT22;6871;51.34740610;4.31323160;2023-04-03T17:11:33;14.80;81.80
13600;DHT22;6871;51.34740610;4.31323160;2023-04-03T17:14:21;14.80;81.70
13600;DHT22;6871;51.34740610;4.31323160;2023-04-03T17:17:09;14.80;81.50
13600;DHT22;6871;51.34740610;4.31323160;2023-04-03T17:19:58;14.80;81.10
13600;DHT22;6871;51.34740610;4.31323160;2023-04-03T17:22:46;14.80;81.10
13600;DHT22;6871;51.34740610;4.31323160;2023-04-03T17:33:44;14.80;81.60
13600;DHT22;6871;51.34740610;4.31323160;2023-04-03T17:36:33;14.80;82.30
13600;DHT22;6871;51.34740610;4.31323160;2023-04-03T17:45:20;14.80;81.10
13600;DHT22;6871;51.34740610;4.31323160;2023-04-03T17:53:26;14.70;82.10
13600;DHT22;6871;51.34740610;4.31323160;2023-04-03T17:56:15;14.70;82.20
13600;DHT22;6871;51.34740610;4.31323160;2023-04-03T17:59:23;14.70;82.60
13600;DHT22;6871;51.34740610;4.31323160;2023-04-03T18:16:11;14.60;83.00
13600;DHT22;6871;51.34740610;4.31323160;2023-04-03T18:19:20;14.60;83.60
13600;DHT22;6871;51.34740610;4.31323160;2023-04-03T18:41:10;14.50;82.90
13600;DHT22;6871;51.34740610;4.31323160;2023-04-03T18:43:41;14.50;83.20
13600;DHT22;6871;51.34740610;4.31323160;2023-04-03T18:46:25;14.50;83.20
13600;DHT22;6871;51.34740610;4.31323160;2023-04-03T18:52:24;14.50;83.60
13600;DHT22;6871;51.34740610;4.31323160;2023-04-03T18:54:54;14.50;83.50
13600;DHT22;6871;51.34740610;4.31323160;2023-04-03T18:57:24;14.40;83.80
13600;DHT22;6871;51.34740610;4.31323160;2023-04-03T18:59:57;14.50;83.70
13600;DHT22;6871;51.34740610;4.31323160;2023-04-03T19:02:26;14.40;83.30
13600;DHT22;6871;51.34740610;4.31323160;2023-04-03T19:12:10;14.40;83.70
13600;DHT22;6871;51.34740610;4.31323160;2023-04-03T19:18:28;14.30;83.80
13600;DHT22;6871;51.34740610;4.31323160;2023-04-03T19:23:55;14.30;83.80
13600;DHT22;6871;51.34740610;4.31323160;2023-04-03T19:26:56;14.30;83.90
13600;DHT22;6871;51.34740610;4.31323160;2023-04-03T19:29:44;14.30;83.60
13600;DHT22;6871;51.34740610;4.31323160;2023-04-03T20:02:32;14.30;82.80
13600;DHT22;6871;51.34740610;4.31323160;2023-04-03T20:05:21;14.30;83.00
13600;DHT22;6871;51.34740610;4.31323160;2023-04-03T20:22:28;14.20;83.00
13600;DHT22;6871;51.34740610;4.31323160;2023-04-03T20:38:48;14.20;82.90
13600;DHT22;6871;51.34740610;4.31323160;2023-04-03T20:41:49;14.00;83.10
13600;DHT22;6871;51.34740610;4.31323160;2023-04-03T20:50:28;14.00;82.70
13600;DHT22;6871;51.34740610;4.31323160;2023-04-03T20:52:58;14.00;82.30
13600;DHT22;6871;51.34740610;4.31323160;2023-04-03T21:27:52;14.00;81.50
13600;DHT22;6871;51.34740610;4.31323160;2023-04-03T21:30:22;14.00;81.30
13600;DHT22;6871;51.34740610;4.31323160;2023-04-03T21:33:10;14.00;81.70
13600;DHT22;6871;51.34740610;4.31323160;2023-04-03T21:46:00;14.00;81.90
13600;DHT22;6871;51.34740610;4.31323160;2023-04-03T21:51:55;14.00;81.10
13600;DHT22;6871;51.34740610;4.31323160;2023-04-03T22:14:25;14.00;81.00
13600;DHT22;6871;51.34740610;4.31323160;2023-04-03T22:20:03;14.00;82.50
13600;DHT22;6871;51.34740610;4.31323160;2023-04-03T22:22:54;14.00;81.10
13600;DHT22;6871;51.34740610;4.31323160;2023-04-03T22:25:24;14.00;80.70
13600;DHT22;6871;51.34740610;4.31323160;2023-04-03T22:28:14;14.00;80.40
13600;DHT22;6871;51.34740610;4.31323160;2023-04-03T22:31:03;14.00;80.30
13600;DHT22;6871;51.34740610;4.31323160;2023-04-03T22:33:53;14.00;80.10
13600;DHT22;6871;51.34740610;4.31323160;2023-04-03T22:36:41;14.00;80.00
13600;DHT22;6871;51.34740610;4.31323160;2023-04-03T22:39:32;14.00;79.90
13600;DHT22;6871;51.34740610;4.31323160;2023-04-03T22:48:55;14.10;79.80
13600;DHT22;6871;51.34740610;4.31323160;2023-04-03T22:51:25;14.10;79.60
13600;DHT22;6871;51.34740610;4.31323160;2023-04-03T22:54:13;14.10;79.50
13600;DHT22;6871;51.34740610;4.31323160;2023-04-03T23:00:12;14.10;79.20
13600;DHT22;6871;51.34740610;4.31323160;2023-04-03T23:03:02;14.10;79.20
13600;DHT22;6871;51.34740610;4.31323160;2023-04-03T23:05:50;14.20;79.10
13600;DHT22;6871;51.34740610;4.31323160;2023-04-03T23:09:00;14.20;79.00
13600;DHT22;6871;51.34740610;4.31323160;2023-04-03T23:47:14;14.30;78.10
13600;DHT22;6871;51.34740610;4.31323160;2023-04-03T23:50:04;14.30;78.00
13600;DHT22;6871;51.34740610;4.31323160;2023-04-03T23:52:34;14.30;78.00
13600;DHT22;6871;51.34740610;4.31323160;2023-04-03T23:55:05;14.30;78.00
13600;DHT22;6871;51.34740610;4.31323160;2023-04-03T23:57:54;14.30;77.90
